Time;durP1;ratioP1;P1;durP2;ratioP2;P2;SDS_P1;SDS_P2;PMS_P1;PMS_P2;Temp;Humidity;BMP_temperature;BMP_pressure;BME280_temperature;BME280_humidity;BME280_pressure;Samples;Min_cycle;Max_cycle;Signal;HPM_P1;HPM_P2
2022/04/19 00:00:42;;;;;;;6.10;4.53;;;14.00;40.60;;;;;;5104277;27;20028;-74
2022/04/19 00:03:09;;;;;;;5.53;4.65;;;13.90;40.60;;;;;;5094890;28;20034;-75
2022/04/19 00:05:38;;;;;;;6.97;5.00;;;13.80;40.60;;;;;;5094675;28;21546;-72
2022/04/19 00:08:05;;;;;;;6.07;4.90;;;13.80;40.60;;;;;;5109912;27;20038;-75
2022/04/19 00:10:32;;;;;;;6.32;4.55;;;13.80;40.70;;;;;;5109906;27;20485;-72
2022/04/19 00:13:03;;;;;;;6.40;4.93;;;13.80;40.70;;;;;;5109058;28;20032;-72
2022/04/19 00:15:30;;;;;;;8.87;5.83;;;13.80;40.70;;;;;;5106195;28;20024;-74
2022/04/19 00:17:56;;;;;;;6.97;5.18;;;13.70;40.80;;;;;;5105224;28;20036;-73
2022/04/19 00:20:24;;;;;;;6.53;4.75;;;13.70;40.80;;;;;;5103169;27;20023;-73
2022/04/19 00:22:49;;;;;;;6.18;4.68;;;13.60;41.00;;;;;;5106756;27;20032;-73
2022/04/19 00:25:15;;;;;;;6.70;4.88;;;13.60;41.10;;;;;;5101430;28;20107;-74
2022/04/19 00:27:41;;;;;;;8.23;5.32;;;13.60;41.20;;;;;;5109823;28;20040;-73
2022/04/19 00:30:07;;;;;;;6.30;4.90;;;13.50;41.30;;;;;;5102393;28;20050;-74
2022/04/19 00:32:34;;;;;;;6.35;4.88;;;13.50;41.30;;;;;;5103535;28;20034;-73
2022/04/19 00:35:00;;;;;;;6.93;4.75;;;13.50;41.30;;;;;;5103996;27;20016;-72
2022/04/19 00:37:26;;;;;;;10.07;5.85;;;13.50;41.40;;;;;;5107329;27;20560;-73
2022/04/19 00:39:52;;;;;;;7.43;5.53;;;13.40;41.40;;;;;;5108042;27;20099;-73
2022/04/19 00:42:18;;;;;;;7.22;5.10;;;13.40;41.50;;;;;;5109806;28;20535;-73
2022/04/19 00:44:44;;;;;;;6.75;4.80;;;13.40;41.50;;;;;;5096962;28;20036;-72
2022/04/19 00:47:10;;;;;;;7.40;5.03;;;13.40;41.50;;;;;;5104509;28;20031;-73
2022/04/19 00:49:43;;;;;;;7.07;4.05;;;13.40;41.40;;;;;;5098904;28;20068;-72
2022/04/19 00:52:10;;;;;;;6.68;4.93;;;13.40;41.40;;;;;;5103219;28;20020;-75
2022/04/19 00:54:36;;;;;;;8.85;5.57;;;13.30;41.40;;;;;;5085416;28;20020;-74
2022/04/19 00:57:03;;;;;;;5.78;4.40;;;13.30;41.50;;;;;;5109304;28;20027;-73
2022/04/19 00:59:29;;;;;;;6.45;4.82;;;13.30;41.40;;;;;;5120393;27;20036;-73
2022/04/19 01:01:54;;;;;;;5.78;4.40;;;13.30;41.40;;;;;;5101550;27;20486;-72
2022/04/19 01:04:20;;;;;;;6.38;4.57;;;13.20;41.40;;;;;;5107286;27;20024;-74
2022/04/19 01:06:46;;;;;;;8.90;6.00;;;13.20;41.40;;;;;;5088143;28;20236;-73
2022/04/19 01:09:12;;;;;;;10.68;7.40;;;13.20;41.50;;;;;;5082554;27;20049;-73
2022/04/19 01:14:24;;;;;;;7.82;5.20;;;13.10;41.60;;;;;;5101563;28;20031;-72
2022/04/19 01:16:49;;;;;;;6.20;4.75;;;13.10;41.50;;;;;;5104408;28;20011;-72
2022/04/19 01:19:15;;;;;;;6.78;5.10;;;13.10;41.50;;;;;;5086902;28;20028;-72
2022/04/19 01:21:45;;;;;;;7.47;5.85;;;13.10;41.50;;;;;;5103906;28;20374;-71
2022/04/19 01:24:15;;;;;;;8.07;5.20;;;13.00;41.50;;;;;;5099642;28;20035;-71
2022/04/19 01:26:41;;;;;;;6.85;5.35;;;13.00;41.60;;;;;;5102177;28;20024;-71
2022/04/19 01:29:08;;;;;;;7.05;4.82;;;13.00;41.60;;;;;;5107880;28;20126;-71
2022/04/19 01:31:34;;;;;;;6.90;5.00;;;13.00;41.70;;;;;;5087269;28;20035;-72
2022/04/19 01:33:59;;;;;;;6.95;4.55;;;13.00;41.70;;;;;;5086873;28;20028;-71
2022/04/19 01:36:25;;;;;;;6.68;4.40;;;12.90;41.60;;;;;;5102483;28;20023;-70
2022/04/19 01:38:51;;;;;;;6.63;5.00;;;12.90;41.70;;;;;;5093833;28;20409;-70
2022/04/19 01:41:16;;;;;;;7.25;4.90;;;12.90;41.70;;;;;;5099093;28;20039;-71
2022/04/19 01:43:44;;;;;;;7.65;5.53;;;12.90;41.90;;;;;;5113730;28;20463;-71
2022/04/19 01:46:11;;;;;;;6.07;4.03;;;12.80;41.90;;;;;;5092571;28;20015;-69
2022/04/19 01:48:36;;;;;;;7.07;4.88;;;12.80;41.90;;;;;;5113457;28;20024;-70
2022/04/19 01:51:02;;;;;;;7.47;5.28;;;12.80;42.00;;;;;;5102311;28;20050;-69
2022/04/19 01:53:28;;;;;;;6.32;4.80;;;12.80;42.00;;;;;;5088856;28;20420;-69
2022/04/19 01:55:54;;;;;;;7.80;5.30;;;12.70;42.10;;;;;;5097486;28;20019;-69
2022/04/19 01:58:19;;;;;;;7.82;5.30;;;12.70;42.00;;;;;;5105433;28;20015;-69
2022/04/19 02:00:45;;;;;;;6.90;4.95;;;12.70;42.10;;;;;;5100910;28;20399;-69
2022/04/19 02:03:10;;;;;;;6.68;4.97;;;12.70;42.10;;;;;;5106621;28;20031;-69
2022/04/19 02:05:36;;;;;;;7.38;5.20;;;12.60;42.00;;;;;;5099453;28;20024;-69
2022/04/19 02:08:02;;;;;;;14.68;8.75;;;12.60;42.10;;;;;;5097859;28;20028;-70
2022/04/19 02:10:27;;;;;;;9.73;6.80;;;12.60;42.10;;;;;;5089675;28;20036;-70
2022/04/19 02:12:53;;;;;;;9.52;5.88;;;12.60;42.20;;;;;;5092496;28;20081;-70
2022/04/19 02:15:19;;;;;;;7.78;5.40;;;12.60;42.20;;;;;;5098272;28;20091;-71
2022/04/19 02:17:49;;;;;;;7.50;5.50;;;12.50;42.30;;;;;;5081469;28;20020;-71
2022/04/19 02:20:17;;;;;;;7.43;5.13;;;12.50;42.30;;;;;;5107379;28;20102;-70
2022/04/19 02:22:44;;;;;;;6.32;4.88;;;12.50;42.40;;;;;;5113079;28;20019;-69
2022/04/19 02:25:11;;;;;;;7.43;5.70;;;12.50;42.30;;;;;;5121298;28;20027;-70
2022/04/19 02:27:39;;;;;;;8.68;6.43;;;12.50;42.40;;;;;;5113778;28;20031;-70
2022/04/19 02:30:06;;;;;;;8.25;5.82;;;12.50;42.50;;;;;;5110145;28;20556;-74
2022/04/19 02:32:33;;;;;;;8.00;5.75;;;12.50;42.50;;;;;;5099050;28;20016;-74
2022/04/19 02:34:59;;;;;;;8.00;5.95;;;12.50;42.50;;;;;;5101505;28;20120;-75
2022/04/19 02:37:25;;;;;;;10.05;6.32;;;12.50;42.60;;;;;;5118379;28;20099;-74
2022/04/19 02:39:50;;;;;;;7.93;5.80;;;12.40;42.60;;;;;;5096782;28;20379;-73
2022/04/19 02:42:16;;;;;;;9.80;6.43;;;12.40;42.60;;;;;;5087565;28;103734;-74
2022/04/19 02:44:42;;;;;;;8.55;6.10;;;12.40;42.70;;;;;;5091305;28;20020;-74
2022/04/19 02:47:07;;;;;;;8.55;5.80;;;12.40;42.70;;;;;;5105255;28;20024;-75
2022/04/19 02:49:34;;;;;;;8.55;6.32;;;12.40;42.70;;;;;;5085696;28;20494;-76
2022/04/19 02:52:00;;;;;;;8.77;6.45;;;12.40;42.80;;;;;;5106116;28;20020;-75
2022/04/19 02:54:25;;;;;;;18.92;11.43;;;12.40;42.80;;;;;;5097016;28;20020;-74
2022/04/19 02:56:51;;;;;;;14.85;9.30;;;12.40;43.00;;;;;;5107485;28;20031;-75
2022/04/19 02:59:18;;;;;;;10.95;7.22;;;12.40;43.00;;;;;;5081271;28;20042;-75
2022/04/19 03:01:43;;;;;;;10.80;7.00;;;12.40;43.00;;;;;;5105577;28;20042;-76
2022/04/19 03:04:09;;;;;;;9.75;6.28;;;12.40;43.10;;;;;;5100867;28;20024;-74
2022/04/19 03:06:34;;;;;;;9.93;6.97;;;12.40;43.10;;;;;;5094894;28;20524;-73
2022/04/19 03:09:00;;;;;;;8.43;6.15;;;12.30;43.30;;;;;;5095566;28;20024;-72
2022/04/19 03:11:26;;;;;;;8.48;6.13;;;12.40;43.30;;;;;;5106652;28;20906;-73
2022/04/19 03:13:52;;;;;;;9.85;6.43;;;12.40;43.30;;;;;;5083552;28;20020;-73
2022/04/19 03:16:17;;;;;;;9.25;6.68;;;12.30;43.40;;;;;;5088447;28;20066;-73
2022/04/19 03:18:43;;;;;;;9.98;7.32;;;12.30;43.60;;;;;;5096628;28;20038;-73
2022/04/19 03:21:13;;;;;;;9.00;6.85;;;12.30;43.70;;;;;;5081379;28;20038;-73
2022/04/19 03:29:09;;;;;;;11.13;7.22;;;12.30;43.90;;;;;;5103787;28;20089;-73
2022/04/19 03:31:34;;;;;;;10.93;7.85;;;12.20;44.00;;;;;;5112755;28;20080;-73
2022/04/19 03:34:04;;;;;;;10.45;7.32;;;12.20;44.10;;;;;;5094134;28;20035;-73
2022/04/19 03:36:31;;;;;;;10.20;7.00;;;12.20;44.20;;;;;;5112669;27;20016;-71
2022/04/19 03:38:56;;;;;;;8.75;6.35;;;12.20;44.20;;;;;;5089658;28;20051;-72
2022/04/19 03:41:22;;;;;;;9.07;6.22;;;12.20;44.20;;;;;;5105146;28;20043;-71
2022/04/19 03:43:48;;;;;;;8.75;5.82;;;12.20;44.20;;;;;;5087905;28;20152;-73
2022/04/19 03:46:14;;;;;;;7.72;5.55;;;12.20;44.20;;;;;;5093728;28;20489;-76
2022/04/19 03:48:39;;;;;;;9.77;7.00;;;12.20;44.30;;;;;;5094054;28;20058;-75
2022/04/19 03:51:05;;;;;;;10.25;6.97;;;12.10;44.50;;;;;;5093154;28;20026;-72
2022/04/19 03:53:31;;;;;;;8.85;6.00;;;12.10;44.60;;;;;;5101996;28;20516;-73
2022/04/19 03:55:58;;;;;;;8.80;5.90;;;12.10;44.40;;;;;;5096321;28;20036;-72
2022/04/19 03:58:25;;;;;;;9.77;6.72;;;12.10;44.50;;;;;;5100392;28;20043;-70
2022/04/19 04:00:51;;;;;;;8.45;6.28;;;12.10;44.70;;;;;;5093784;28;20359;-69
2022/04/19 04:03:16;;;;;;;9.82;6.53;;;12.10;44.70;;;;;;5112436;27;20224;-70
2022/04/19 04:05:42;;;;;;;8.38;6.00;;;12.00;44.70;;;;;;5100023;28;20420;-71
2022/04/19 04:08:07;;;;;;;10.30;7.03;;;12.00;44.90;;;;;;5099995;28;20110;-72
2022/04/19 04:10:33;;;;;;;8.75;6.45;;;12.00;45.00;;;;;;5088454;28;20425;-72
2022/04/19 04:13:00;;;;;;;9.30;6.53;;;11.90;45.00;;;;;;5108572;27;20077;-72
2022/04/19 04:15:25;;;;;;;9.50;6.25;;;11.90;45.10;;;;;;5104073;28;20019;-71
2022/04/19 04:17:51;;;;;;;10.15;6.47;;;11.90;45.20;;;;;;5085048;28;20374;-71
2022/04/19 04:20:16;;;;;;;9.20;6.15;;;11.90;45.20;;;;;;5087910;28;20035;-70
2022/04/19 04:22:42;;;;;;;10.13;7.35;;;11.90;45.20;;;;;;5102307;28;20059;-71
2022/04/19 04:25:07;;;;;;;10.32;7.15;;;11.90;45.30;;;;;;5100436;27;20589;-73
2022/04/19 04:27:33;;;;;;;10.07;6.65;;;11.90;45.30;;;;;;5103455;28;20059;-72
2022/04/19 04:29:59;;;;;;;9.00;6.40;;;11.90;45.30;;;;;;5091361;28;20024;-71
2022/04/19 04:32:24;;;;;;;7.95;5.55;;;11.90;45.30;;;;;;5103622;28;20398;-71
2022/04/19 04:34:50;;;;;;;6.88;5.03;;;11.90;45.30;;;;;;5090386;28;20073;-73
2022/04/19 04:37:15;;;;;;;6.80;4.68;;;11.90;45.20;;;;;;5104910;28;20018;-75
2022/04/19 04:39:41;;;;;;;6.60;4.68;;;11.90;45.10;;;;;;5101816;27;20031;-74
2022/04/19 04:42:07;;;;;;;6.15;4.57;;;12.00;45.10;;;;;;5100923;27;20035;-75
2022/04/19 04:44:32;;;;;;;5.80;4.13;;;12.00;45.10;;;;;;5103689;28;20028;-75
2022/04/19 04:49:42;;;;;;;6.60;4.68;;;12.00;45.10;;;;;;5101896;28;20104;-75
2022/04/19 04:52:11;;;;;;;6.18;4.20;;;12.00;45.10;;;;;;5093030;28;20430;-75
2022/04/19 04:54:38;;;;;;;6.03;4.18;;;12.00;45.10;;;;;;5090922;28;20118;-78
2022/04/19 04:57:05;;;;;;;6.93;4.53;;;12.00;45.10;;;;;;5087298;28;20397;-75
2022/04/19 04:59:31;;;;;;;7.50;5.13;;;12.10;45.10;;;;;;5085427;28;20016;-74
2022/04/19 05:01:58;;;;;;;6.85;4.60;;;12.10;45.10;;;;;;5107264;28;20035;-74
2022/04/19 05:04:24;;;;;;;6.03;4.60;;;12.10;45.10;;;;;;5088039;28;20050;-73
2022/04/19 05:06:49;;;;;;;6.88;4.70;;;12.10;45.00;;;;;;5078030;28;20508;-71
2022/04/19 05:09:15;;;;;;;6.43;4.63;;;12.20;45.00;;;;;;5107681;27;20028;-73
2022/04/19 05:11:41;;;;;;;7.68;4.63;;;12.10;45.00;;;;;;5104916;27;20031;-71
2022/04/19 05:14:10;;;;;;;7.65;4.70;;;12.20;45.10;;;;;;5104427;27;20028;-72
2022/04/19 05:16:36;;;;;;;7.90;5.07;;;12.20;45.20;;;;;;5088445;28;20191;-72
2022/04/19 05:19:04;;;;;;;7.07;5.00;;;12.20;45.20;;;;;;5108033;27;20497;-71
2022/04/19 05:21:30;;;;;;;6.63;4.40;;;12.20;45.10;;;;;;5108398;27;20035;-75
2022/04/19 05:23:55;;;;;;;7.03;4.70;;;12.30;45.20;;;;;;5095050;28;20549;-73
2022/04/19 05:26:28;;;;;;;6.50;4.57;;;12.30;45.20;;;;;;5106229;27;20031;-73
2022/04/19 05:28:54;;;;;;;;;;;12.30;45.10;;;;;;5091391;28;20545;-73
2022/04/19 05:31:19;;;;;;;7.10;4.32;;;13.00;44.90;;;;;;5084733;27;19915;-73
2022/04/19 05:33:45;;;;;;;7.10;5.07;;;14.50;43.00;;;;;;5102381;28;20026;-73
2022/04/19 05:36:12;;;;;;;7.28;4.85;;;15.90;40.80;;;;;;5097976;28;20031;-74
2022/04/19 05:38:37;;;;;;;8.00;4.97;;;17.30;38.70;;;;;;5105287;28;20022;-73
2022/04/19 05:41:03;;;;;;;8.52;5.50;;;18.50;37.20;;;;;;5105190;28;20106;-74
2022/04/19 05:43:28;;;;;;;7.45;5.45;;;19.40;35.70;;;;;;5085496;28;20027;-74
2022/04/19 05:45:55;;;;;;;9.77;5.60;;;20.40;34.70;;;;;;5101404;27;20382;-69
2022/04/19 05:48:20;;;;;;;8.75;5.50;;;21.00;33.60;;;;;;5104906;27;20020;-72
2022/04/19 05:50:46;;;;;;;7.75;5.30;;;20.70;33.40;;;;;;5099721;28;20058;-72
2022/04/19 05:53:11;;;;;;;7.50;5.40;;;20.10;33.80;;;;;;5084120;28;20050;-73
2022/04/19 05:55:37;;;;;;;7.93;5.60;;;19.40;34.40;;;;;;5092305;28;20016;-72
2022/04/19 05:58:04;;;;;;;6.32;4.97;;;18.80;34.90;;;;;;5101881;27;20489;-71
2022/04/19 06:00:30;;;;;;;6.63;4.85;;;18.70;35.40;;;;;;5105007;27;20028;-73
2022/04/19 06:05:40;;;;;;;8.27;4.90;;;20.40;34.00;;;;;;5097599;28;20172;-71
2022/04/19 06:08:05;;;;;;;6.63;4.57;;;21.70;32.40;;;;;;5092548;28;20023;-71
2022/04/19 06:10:31;;;;;;;7.38;5.13;;;22.70;31.20;;;;;;5096273;28;20032;-71
2022/04/19 06:12:56;;;;;;;7.90;5.70;;;23.80;30.10;;;;;;5093931;27;20026;-69
2022/04/19 06:15:22;;;;;;;7.70;5.28;;;23.80;29.10;;;;;;5099133;27;20417;-70
2022/04/19 06:17:48;;;;;;;7.07;5.30;;;24.20;29.10;;;;;;5103612;28;20020;-70
2022/04/19 06:20:13;;;;;;;5.18;4.00;;;24.80;28.80;;;;;;5099654;28;20032;-71
2022/04/19 06:22:39;;;;;;;8.73;5.97;;;25.50;28.60;;;;;;5104375;28;20051;-70
2022/04/19 06:25:05;;;;;;;6.85;4.80;;;25.20;27.90;;;;;;5103040;28;20023;-70
2022/04/19 06:27:31;;;;;;;6.43;4.60;;;25.30;27.90;;;;;;5084265;28;20024;-70
2022/04/19 06:29:57;;;;;;;7.25;5.13;;;25.50;27.60;;;;;;5096756;28;20050;-72
2022/04/19 06:32:24;;;;;;;6.88;5.20;;;25.50;27.40;;;;;;5094807;28;20024;-70
2022/04/19 06:34:50;;;;;;;6.57;4.60;;;25.30;27.40;;;;;;5096144;28;20032;-71
2022/04/19 06:37:15;;;;;;;5.80;4.60;;;25.80;27.40;;;;;;5095590;28;20038;-70
2022/04/19 06:39:41;;;;;;;7.00;5.10;;;25.90;26.80;;;;;;5083047;28;20031;-70
2022/04/19 06:42:07;;;;;;;6.28;4.32;;;25.70;26.60;;;;;;5100680;28;20446;-72
2022/04/19 06:44:33;;;;;;;6.15;4.43;;;25.70;26.70;;;;;;5092965;28;20054;-71
2022/04/19 06:46:58;;;;;;;7.03;4.22;;;25.70;26.60;;;;;;5097923;28;20051;-71
2022/04/19 06:49:24;;;;;;;7.05;5.22;;;25.80;26.60;;;;;;5093663;28;20032;-71
2022/04/19 06:51:50;;;;;;;5.60;4.25;;;25.40;25.90;;;;;;5095515;28;20032;-71
2022/04/19 06:54:16;;;;;;;5.13;3.97;;;25.50;26.40;;;;;;5096819;28;20040;-70
2022/04/19 06:56:42;;;;;;;5.60;4.22;;;25.90;26.50;;;;;;5104999;28;20390;-71
2022/04/19 06:59:08;;;;;;;7.93;5.00;;;25.90;26.10;;;;;;5099724;28;20765;-71
2022/04/19 07:01:35;;;;;;;6.53;4.70;;;25.60;26.00;;;;;;5104384;28;20028;-71
2022/04/19 07:04:01;;;;;;;8.38;5.35;;;25.30;26.00;;;;;;5108417;28;20019;-71
2022/04/19 07:06:26;;;;;;;7.38;5.25;;;25.20;26.20;;;;;;5105498;27;20035;-71
2022/04/19 07:08:52;;;;;;;6.28;5.03;;;25.00;26.10;;;;;;5105731;27;20015;-70
2022/04/19 07:11:17;;;;;;;7.03;5.03;;;25.00;26.20;;;;;;5112665;27;20023;-71
2022/04/19 07:13:43;;;;;;;7.10;5.10;;;24.70;26.30;;;;;;5109253;28;20020;-71
2022/04/19 07:16:09;;;;;;;6.00;4.40;;;24.50;26.60;;;;;;5111022;28;20019;-72
2022/04/19 07:18:34;;;;;;;6.32;4.10;;;25.20;26.70;;;;;;5093189;28;20077;-71
2022/04/19 07:26:37;;;;;;;7.65;5.03;;;25.50;25.60;;;;;;5104523;27;20031;-71
2022/04/19 07:29:12;;;;;;;6.15;3.80;;;25.50;25.70;;;;;;5085417;28;20078;-70
2022/04/19 07:31:39;;;;;;;6.80;4.60;;;25.50;26.00;;;;;;5102414;28;20490;-70
2022/04/19 07:34:05;;;;;;;8.18;5.47;;;25.40;25.90;;;;;;5109039;28;20475;-70
2022/04/19 07:36:31;;;;;;;5.60;4.00;;;25.00;25.70;;;;;;5112731;27;20028;-71
2022/04/19 07:38:59;;;;;;;6.50;4.70;;;24.70;26.20;;;;;;5113182;28;20114;-70
2022/04/19 07:41:25;;;;;;;6.63;4.55;;;25.00;26.10;;;;;;5109800;28;20393;-71
2022/04/19 07:43:51;;;;;;;7.82;4.85;;;25.10;26.20;;;;;;5106432;28;20028;-70
2022/04/19 07:46:18;;;;;;;6.28;4.32;;;25.00;25.90;;;;;;5121838;27;20083;-70
2022/04/19 07:48:45;;;;;;;4.88;3.55;;;24.70;26.40;;;;;;5102851;27;20023;-70
2022/04/19 07:51:14;;;;;;;5.68;3.58;;;24.90;26.50;;;;;;5092489;28;20028;-70
2022/04/19 07:53:40;;;;;;;6.72;3.70;;;25.20;26.30;;;;;;5092975;28;20031;-69
2022/04/19 07:56:06;;;;;;;6.07;3.92;;;25.00;26.20;;;;;;5113194;27;20024;-70
2022/04/19 07:58:32;;;;;;;6.35;3.90;;;24.80;26.10;;;;;;5127675;27;20046;-70
2022/04/19 08:00:57;;;;;;;6.35;4.30;;;24.70;26.30;;;;;;5123263;27;20505;-70
2022/04/19 08:03:23;;;;;;;6.43;4.65;;;24.70;26.60;;;;;;5111108;28;20027;-70
2022/04/19 08:05:50;;;;;;;5.75;4.07;;;24.50;27.10;;;;;;5109249;28;20032;-70
2022/04/19 08:08:17;;;;;;;6.13;4.20;;;24.30;27.00;;;;;;5104876;28;20031;-70
2022/04/19 08:10:43;;;;;;;6.35;4.43;;;24.20;27.00;;;;;;5096371;28;20089;-70
2022/04/19 08:13:09;;;;;;;4.53;2.83;;;24.00;27.20;;;;;;5096101;28;20417;-68
2022/04/19 08:15:34;;;;;;;4.10;2.75;;;24.10;27.30;;;;;;5097664;28;20063;-70
2022/04/19 08:18:00;;;;;;;5.18;3.40;;;24.50;27.10;;;;;;5105548;28;20027;-70
2022/04/19 08:20:25;;;;;;;5.75;3.80;;;24.60;27.10;;;;;;5102099;28;20032;-70
2022/04/19 08:22:51;;;;;;;4.82;3.30;;;24.50;26.90;;;;;;5103365;27;20371;-68
2022/04/19 08:25:17;;;;;;;5.18;2.95;;;24.50;27.30;;;;;;5104653;27;20103;-71
2022/04/19 08:27:46;;;;;;;6.38;3.95;;;24.20;27.40;;;;;;5107274;28;20051;-69
2022/04/19 08:30:13;;;;;;;6.80;4.22;;;23.70;28.30;;;;;;5110726;28;20030;-68
2022/04/19 08:32:39;;;;;;;5.25;3.58;;;22.80;28.30;;;;;;5110768;28;20504;-68
2022/04/19 08:35:05;;;;;;;6.55;3.85;;;22.30;28.80;;;;;;5110128;28;20104;-69
2022/04/19 08:37:34;;;;;;;6.22;4.05;;;21.80;29.40;;;;;;5108236;28;20098;-68
2022/04/19 08:40:01;;;;;;;5.82;3.75;;;21.20;29.90;;;;;;5105543;28;20028;-68
2022/04/19 08:42:29;;;;;;;6.18;3.47;;;20.90;30.50;;;;;;5108092;28;20035;-69
2022/04/19 08:44:56;;;;;;;5.97;4.10;;;20.80;31.00;;;;;;5105748;27;20030;-70
2022/04/19 08:47:23;;;;;;;4.40;3.20;;;20.40;31.20;;;;;;5103473;28;20032;-68
2022/04/19 08:49:53;;;;;;;5.28;3.63;;;20.20;31.80;;;;;;5110117;27;20745;-69
2022/04/19 08:52:19;;;;;;;7.18;4.25;;;19.90;31.70;;;;;;5096674;28;20020;-69
2022/04/19 08:57:31;;;;;;;5.57;3.80;;;19.00;32.80;;;;;;5098800;28;20089;-69
2022/04/19 09:00:03;;;;;;;4.82;3.60;;;18.90;33.40;;;;;;5091978;28;20031;-69
2022/04/19 09:02:30;;;;;;;5.88;3.83;;;18.90;33.70;;;;;;5093332;28;20368;-68
2022/04/19 09:05:12;;;;;;;4.70;3.45;;;18.80;34.20;;;;;;5092196;28;20020;-69
2022/04/19 09:07:38;;;;;;;5.78;3.72;;;18.80;33.90;;;;;;5083333;28;20111;-69
2022/04/19 09:10:06;;;;;;;5.70;3.55;;;18.70;33.80;;;;;;5091108;28;20020;-69
2022/04/19 09:12:32;;;;;;;6.15;3.20;;;18.50;33.70;;;;;;5102834;28;20019;-69
2022/04/19 09:15:00;;;;;;;5.10;3.75;;;18.50;34.30;;;;;;5102938;28;20099;-69
2022/04/19 09:17:40;;;;;;;5.50;3.70;;;18.60;34.40;;;;;;5105667;27;20012;-69
2022/04/19 09:20:18;;;;;;;4.70;3.10;;;18.50;34.30;;;;;;5132107;27;20020;-69
2022/04/19 09:22:45;;;;;;;5.22;3.30;;;18.50;34.40;;;;;;5118786;27;20020;-69
2022/04/19 09:25:15;;;;;;;5.95;3.55;;;18.60;34.30;;;;;;5111826;28;20024;-69
2022/04/19 09:27:42;;;;;;;5.82;3.63;;;18.60;34.20;;;;;;5092880;28;20028;-69
2022/04/19 09:30:27;;;;;;;5.65;3.95;;;18.70;34.10;;;;;;5111426;28;20016;-69
2022/04/19 09:33:11;;;;;;;4.93;3.30;;;18.50;33.80;;;;;;5090117;28;20024;-68
2022/04/19 09:35:57;;;;;;;5.97;3.58;;;18.40;34.30;;;;;;5111400;28;20015;-69
2022/04/19 09:38:40;;;;;;;6.93;4.40;;;18.50;34.20;;;;;;5109570;28;20478;-69
2022/04/19 09:41:10;;;;;;;5.03;3.50;;;18.40;34.10;;;;;;5090757;28;20044;-69
2022/04/19 09:43:37;;;;;;;4.20;2.85;;;18.30;34.30;;;;;;5087818;28;20039;-69
2022/04/19 09:46:06;;;;;;;5.65;3.10;;;18.40;34.70;;;;;;5105217;27;21390;-69
2022/04/19 09:48:34;;;;;;;5.05;3.40;;;18.40;34.40;;;;;;5101291;28;20024;-69
2022/04/19 09:51:02;;;;;;;6.22;4.18;;;18.40;34.30;;;;;;5107914;28;20126;-69
2022/04/19 09:53:30;;;;;;;4.85;3.30;;;18.30;34.30;;;;;;5108189;27;20059;-69
2022/04/19 09:55:56;;;;;;;5.22;3.22;;;18.20;34.30;;;;;;5090049;28;20035;-69
2022/04/19 09:58:23;;;;;;;5.13;3.83;;;18.20;34.60;;;;;;5090439;27;20015;-69
2022/04/19 10:00:50;;;;;;;6.57;3.92;;;18.30;34.40;;;;;;5098988;28;20062;-69
2022/04/19 10:08:38;;;;;;;6.65;4.25;;;18.50;35.00;;;;;;5104993;28;20057;-69
2022/04/19 10:11:04;;;;;;;9.63;4.82;;;18.60;34.90;;;;;;5106015;27;20102;-69
2022/04/19 10:13:32;;;;;;;7.35;4.25;;;18.60;34.80;;;;;;5103118;28;20024;-69
2022/04/19 10:15:59;;;;;;;6.93;4.32;;;18.50;35.00;;;;;;5102602;28;20038;-69
2022/04/19 10:18:25;;;;;;;6.70;4.65;;;18.60;35.10;;;;;;5097184;28;20024;-69
2022/04/19 10:20:51;;;;;;;7.38;4.60;;;18.60;34.80;;;;;;5101150;28;20035;-70
2022/04/19 10:23:17;;;;;;;7.05;4.25;;;18.70;35.10;;;;;;5099804;28;20039;-70
2022/04/19 10:25:46;;;;;;;6.57;3.90;;;18.80;35.20;;;;;;5110401;28;20074;-71
2022/04/19 10:28:15;;;;;;;6.50;4.03;;;19.00;35.00;;;;;;5097022;28;20023;-70
2022/04/19 10:30:52;;;;;;;6.82;4.60;;;18.90;34.60;;;;;;5105219;28;20375;-70
2022/04/19 10:33:41;;;;;;;8.27;4.93;;;19.00;34.80;;;;;;5111748;28;20494;-70
2022/04/19 10:36:20;;;;;;;6.43;4.30;;;19.10;35.10;;;;;;5096886;28;20036;-70
2022/04/19 10:39:06;;;;;;;6.13;3.95;;;19.10;34.80;;;;;;5080293;28;20040;-70
2022/04/19 10:41:55;;;;;;;7.35;4.70;;;19.20;35.00;;;;;;5094258;28;20035;-70
2022/04/19 10:44:30;;;;;;;6.80;4.40;;;19.20;34.70;;;;;;5109868;28;20028;-69
2022/04/19 10:47:16;;;;;;;7.18;4.80;;;19.20;34.70;;;;;;5096265;28;20055;-69
2022/04/19 10:49:48;;;;;;;6.97;4.60;;;19.30;35.20;;;;;;5096075;28;20160;-70
2022/04/19 10:52:40;;;;;;;7.13;4.38;;;19.20;34.50;;;;;;5107853;28;20095;-70
2022/04/19 10:55:07;;;;;;;8.00;4.93;;;19.20;34.70;;;;;;5101129;28;20032;-69
2022/04/19 11:00:57;;;;;;;7.25;4.57;;;19.30;34.30;;;;;;5054737;28;20419;-69
2022/04/19 11:03:25;;;;;;;5.80;3.60;;;19.20;34.30;;;;;;5051590;28;20040;-70
2022/04/19 11:05:52;;;;;;;7.85;5.28;;;19.30;34.30;;;;;;5079990;28;20043;-69
2022/04/19 11:08:29;;;;;;;7.45;4.30;;;19.30;34.30;;;;;;5106839;28;20058;-69
2022/04/19 11:11:06;;;;;;;5.38;3.75;;;19.30;34.80;;;;;;5104992;28;20077;-69
2022/04/19 11:13:40;;;;;;;6.80;3.72;;;19.50;34.50;;;;;;5104303;27;20030;-69
2022/04/19 11:16:05;;;;;;;6.93;4.00;;;19.70;35.40;;;;;;5088809;28;20436;-69
2022/04/19 11:18:39;;;;;;;9.45;4.93;;;19.80;34.20;;;;;;5104277;28;20020;-69
2022/04/19 11:21:06;;;;;;;6.30;3.97;;;19.90;34.00;;;;;;5106008;28;20035;-70
2022/04/19 11:23:45;;;;;;;5.50;3.60;;;19.80;34.00;;;;;;5095090;28;20534;-69
2022/04/19 11:26:26;;;;;;;5.07;3.35;;;19.80;33.90;;;;;;5112407;28;20043;-70
2022/04/19 11:29:10;;;;;;;7.57;4.50;;;20.00;33.80;;;;;;5112500;28;20024;-69
2022/04/19 11:31:56;;;;;;;7.60;4.32;;;20.00;33.10;;;;;;5109631;28;20036;-69
2022/04/19 11:34:22;;;;;;;6.28;3.70;;;19.90;33.60;;;;;;5107676;28;20034;-69
2022/04/19 11:36:48;;;;;;;6.65;4.20;;;20.00;33.90;;;;;;5113561;28;20032;-70
2022/04/19 11:47:48;;;;;;;6.47;4.15;;;20.30;33.30;;;;;;5113905;28;20171;-70
2022/04/19 11:50:31;;;;;;;4.78;3.00;;;20.40;32.60;;;;;;5096990;28;20028;-70
2022/04/19 11:52:57;;;;;;;5.68;3.60;;;20.40;32.20;;;;;;5088584;28;20832;-70
2022/04/19 11:55:25;;;;;;;4.97;2.97;;;20.50;32.40;;;;;;5113410;28;20024;-70
2022/04/19 11:58:04;;;;;;;4.38;2.92;;;20.60;32.60;;;;;;5113190;28;20158;-69
2022/04/19 12:00:31;;;;;;;5.45;3.30;;;20.60;33.00;;;;;;5100443;28;20087;-70
2022/04/19 12:02:57;;;;;;;5.50;3.63;;;20.60;33.10;;;;;;5100481;28;20035;-69
2022/04/19 12:05:27;;;;;;;5.50;3.30;;;20.60;33.10;;;;;;5110817;27;20490;-70
2022/04/19 12:07:55;;;;;;;4.38;3.17;;;20.40;33.10;;;;;;5114361;27;20038;-70
2022/04/19 12:10:22;;;;;;;4.72;2.90;;;20.60;33.20;;;;;;5107554;28;20034;-70
2022/04/19 12:12:52;;;;;;;4.40;2.80;;;20.70;33.10;;;;;;5099263;28;20028;-70
2022/04/19 12:15:41;;;;;;;4.88;3.10;;;20.80;33.00;;;;;;5104080;28;20398;-70
2022/04/19 12:18:07;;;;;;;4.93;3.15;;;20.90;32.90;;;;;;5097004;28;20072;-70
2022/04/19 12:20:42;;;;;;;4.10;2.80;;;21.10;33.00;;;;;;5112574;28;20107;-70
2022/04/19 12:23:21;;;;;;;5.53;3.00;;;21.10;32.90;;;;;;5116064;27;20031;-69
2022/04/19 12:26:00;;;;;;;5.82;3.83;;;21.00;33.10;;;;;;5126000;27;20027;-70
2022/04/19 12:28:34;;;;;;;3.92;2.80;;;20.80;33.30;;;;;;5124265;27;20020;-69
2022/04/19 12:31:00;;;;;;;5.18;3.40;;;20.70;33.40;;;;;;5112404;28;20027;-70
2022/04/19 12:33:25;;;;;;;4.55;3.70;;;20.60;33.40;;;;;;5112418;28;20098;-70
2022/04/19 12:35:54;;;;;;;4.20;3.15;;;20.40;34.00;;;;;;5112346;28;20027;-69
2022/04/19 12:38:29;;;;;;;4.60;3.50;;;20.30;34.30;;;;;;5093838;28;20358;-69
2022/04/19 12:40:54;;;;;;;4.55;3.08;;;20.50;34.50;;;;;;5112205;28;20023;-70
2022/04/19 12:43:20;;;;;;;4.05;3.00;;;20.50;34.30;;;;;;5111958;28;20039;-70
2022/04/19 12:45:48;;;;;;;4.78;3.47;;;20.70;34.10;;;;;;5103633;28;20099;-70
2022/04/19 12:48:21;;;;;;;3.80;2.92;;;20.60;34.10;;;;;;5112251;28;20025;-70
2022/04/19 12:50:47;;;;;;;5.45;3.08;;;20.60;34.30;;;;;;5111800;28;20024;-70
2022/04/19 12:53:25;;;;;;;3.72;2.90;;;20.50;33.80;;;;;;5107283;28;20023;-70
2022/04/19 12:55:50;;;;;;;6.10;3.03;;;20.40;33.90;;;;;;5102206;27;20043;-70
2022/04/19 12:58:16;;;;;;;3.30;2.55;;;20.70;33.90;;;;;;5113167;27;20020;-70
2022/04/19 13:00:41;;;;;;;2.70;2.20;;;21.00;33.60;;;;;;5102056;28;20032;-69
2022/04/19 13:03:07;;;;;;;3.15;2.17;;;21.20;33.30;;;;;;5101559;28;20031;-70
2022/04/19 13:13:45;;;;;;;4.40;2.70;;;21.90;32.50;;;;;;5103442;28;20047;-70
2022/04/19 13:16:11;;;;;;;3.38;2.45;;;21.50;32.80;;;;;;5104007;28;20027;-70
2022/04/19 13:18:36;;;;;;;4.35;3.20;;;21.50;33.10;;;;;;5105908;28;20024;-69
2022/04/19 13:21:02;;;;;;;11.80;8.23;;;21.50;32.50;;;;;;5104124;28;20501;-69
2022/04/19 13:23:27;;;;;;;6.65;4.38;;;21.10;33.10;;;;;;5092531;28;20028;-69
2022/04/19 13:25:54;;;;;;;3.92;2.92;;;21.20;33.50;;;;;;5089432;28;20028;-70
2022/04/19 13:28:22;;;;;;;2.80;2.50;;;21.10;33.60;;;;;;5097015;28;20371;-68
2022/04/19 13:30:48;;;;;;;2.40;2.08;;;21.00;34.00;;;;;;5102217;28;20024;-69
2022/04/19 13:33:14;;;;;;;4.38;2.38;;;21.30;33.80;;;;;;5109167;28;20026;-69
2022/04/19 13:35:39;;;;;;;2.80;2.28;;;21.50;33.20;;;;;;5100956;28;20020;-69